sensor_id;sensor_type;location;lat;lon;timestamp;P1;durP1;ratioP1;P2;durP2;ratioP2
26277;SDS011;14000;52.056;8.510;2024-02-14T00:01:00;13.97;;;5.43;;
26277;SDS011;14000;52.056;8.510;2024-02-14T00:03:25;12.03;;;4.90;;
26277;SDS011;14000;52.056;8.510;2024-02-14T00:05:51;13.57;;;4.73;;
26277;SDS011;14000;52.056;8.510;2024-02-14T00:08:17;14.23;;;5.00;;
26277;SDS011;14000;52.056;8.510;2024-02-14T00:10:43;11.37;;;4.63;;
26277;SDS011;14000;52.056;8.510;2024-02-14T00:13:09;14.83;;;4.87;;
26277;SDS011;14000;52.056;8.510;2024-02-14T00:15:35;16.67;;;4.90;;
26277;SDS011;14000;52.056;8.510;2024-02-14T00:18:02;18.70;;;5.17;;
26277;SDS011;14000;52.056;8.510;2024-02-14T00:20:28;12.50;;;4.90;;
26277;SDS011;14000;52.056;8.510;2024-02-14T00:22:53;14.63;;;4.83;;
26277;SDS011;14000;52.056;8.510;2024-02-14T00:25:19;14.40;;;4.80;;
26277;SDS011;14000;52.056;8.510;2024-02-14T00:27:44;13.17;;;4.73;;
26277;SDS011;14000;52.056;8.510;2024-02-14T00:30:10;10.30;;;4.20;;
26277;SDS011;14000;52.056;8.510;2024-02-14T00:32:36;11.63;;;4.90;;
26277;SDS011;14000;52.056;8.510;2024-02-14T00:35:02;11.67;;;4.50;;
26277;SDS011;14000;52.056;8.510;2024-02-14T00:37:28;10.83;;;4.80;;
26277;SDS011;14000;52.056;8.510;2024-02-14T00:39:54;10.63;;;4.33;;
26277;SDS011;14000;52.056;8.510;2024-02-14T00:42:21;12.57;;;4.37;;
26277;SDS011;14000;52.056;8.510;2024-02-14T00:44:47;10.67;;;4.00;;
26277;SDS011;14000;52.056;8.510;2024-02-14T00:47:12;14.23;;;4.50;;
26277;SDS011;14000;52.056;8.510;2024-02-14T00:49:38;11.77;;;4.43;;
26277;SDS011;14000;52.056;8.510;2024-02-14T00:52:04;13.40;;;3.80;;
26277;SDS011;14000;52.056;8.510;2024-02-14T00:54:29;12.87;;;3.93;;
26277;SDS011;14000;52.056;8.510;2024-02-14T00:56:55;14.00;;;4.27;;
26277;SDS011;14000;52.056;8.510;2024-02-14T00:59:21;12.10;;;4.10;;
26277;SDS011;14000;52.056;8.510;2024-02-14T01:01:46;11.97;;;4.20;;
26277;SDS011;14000;52.056;8.510;2024-02-14T01:04:12;14.60;;;4.03;;
26277;SDS011;14000;52.056;8.510;2024-02-14T01:06:37;14.43;;;4.10;;
26277;SDS011;14000;52.056;8.510;2024-02-14T01:09:03;12.07;;;4.27;;
26277;SDS011;14000;52.056;8.510;2024-02-14T01:11:29;12.37;;;3.97;;
26277;SDS011;14000;52.056;8.510;2024-02-14T01:13:54;10.87;;;3.80;;
26277;SDS011;14000;52.056;8.510;2024-02-14T01:16:20;11.63;;;4.20;;
26277;SDS011;14000;52.056;8.510;2024-02-14T01:18:45;12.37;;;4.50;;
26277;SDS011;14000;52.056;8.510;2024-02-14T01:21:11;12.50;;;3.90;;
26277;SDS011;14000;52.056;8.510;2024-02-14T01:23:37;13.17;;;3.57;;
26277;SDS011;14000;52.056;8.510;2024-02-14T01:26:03;14.60;;;4.40;;
26277;SDS011;14000;52.056;8.510;2024-02-14T01:28:28;10.43;;;3.90;;
26277;SDS011;14000;52.056;8.510;2024-02-14T01:30:54;13.57;;;4.27;;
26277;SDS011;14000;52.056;8.510;2024-02-14T01:33:21;11.37;;;3.70;;
26277;SDS011;14000;52.056;8.510;2024-02-14T01:35:47;10.10;;;3.90;;
26277;SDS011;14000;52.056;8.510;2024-02-14T01:38:13;13.50;;;4.47;;
26277;SDS011;14000;52.056;8.510;2024-02-14T01:40:41;11.90;;;4.10;;
26277;SDS011;14000;52.056;8.510;2024-02-14T01:43:07;12.13;;;3.80;;
26277;SDS011;14000;52.056;8.510;2024-02-14T01:45:33;10.97;;;4.00;;
26277;SDS011;14000;52.056;8.510;2024-02-14T01:47:59;14.87;;;4.57;;
26277;SDS011;14000;52.056;8.510;2024-02-14T01:50:25;12.60;;;4.40;;
26277;SDS011;14000;52.056;8.510;2024-02-14T01:52:54;13.83;;;4.53;;
26277;SDS011;14000;52.056;8.510;2024-02-14T01:55:22;16.30;;;4.97;;
26277;SDS011;14000;52.056;8.510;2024-02-14T01:57:48;12.73;;;5.03;;
26277;SDS011;14000;52.056;8.510;2024-02-14T02:00:13;13.57;;;4.83;;
26277;SDS011;14000;52.056;8.510;2024-02-14T02:02:42;12.80;;;4.70;;
26277;SDS011;14000;52.056;8.510;2024-02-14T02:05:08;11.20;;;4.70;;
26277;SDS011;14000;52.056;8.510;2024-02-14T02:07:35;14.93;;;5.30;;
26277;SDS011;14000;52.056;8.510;2024-02-14T02:10:04;11.03;;;4.90;;
26277;SDS011;14000;52.056;8.510;2024-02-14T02:12:30;14.17;;;4.83;;
26277;SDS011;14000;52.056;8.510;2024-02-14T02:14:57;11.90;;;4.80;;
26277;SDS011;14000;52.056;8.510;2024-02-14T02:17:23;13.83;;;5.13;;
26277;SDS011;14000;52.056;8.510;2024-02-14T02:19:49;12.27;;;4.80;;
26277;SDS011;14000;52.056;8.510;2024-02-14T02:22:14;14.37;;;4.83;;
26277;SDS011;14000;52.056;8.510;2024-02-14T02:24:40;13.07;;;4.67;;
26277;SDS011;14000;52.056;8.510;2024-02-14T02:27:06;13.47;;;4.73;;
26277;SDS011;14000;52.056;8.510;2024-02-14T02:29:31;12.07;;;4.83;;
26277;SDS011;14000;52.056;8.510;2024-02-14T02:31:57;12.57;;;3.97;;
26277;SDS011;14000;52.056;8.510;2024-02-14T02:34:23;12.93;;;4.40;;
26277;SDS011;14000;52.056;8.510;2024-02-14T02:36:48;12.00;;;4.00;;
26277;SDS011;14000;52.056;8.510;2024-02-14T02:39:16;14.27;;;4.27;;
26277;SDS011;14000;52.056;8.510;2024-02-14T02:41:41;11.03;;;3.97;;
26277;SDS011;14000;52.056;8.510;2024-02-14T02:44:07;14.23;;;4.50;;
26277;SDS011;14000;52.056;8.510;2024-02-14T02:46:32;10.33;;;3.97;;
26277;SDS011;14000;52.056;8.510;2024-02-14T02:48:58;12.50;;;4.13;;
26277;SDS011;14000;52.056;8.510;2024-02-14T02:51:24;10.57;;;3.57;;
26277;SDS011;14000;52.056;8.510;2024-02-14T02:53:50;12.47;;;3.90;;
26277;SDS011;14000;52.056;8.510;2024-02-14T02:56:17;11.77;;;4.03;;
26277;SDS011;14000;52.056;8.510;2024-02-14T02:58:43;13.47;;;3.80;;
26277;SDS011;14000;52.056;8.510;2024-02-14T03:01:09;11.30;;;3.70;;
26277;SDS011;14000;52.056;8.510;2024-02-14T03:03:36;10.07;;;3.70;;
26277;SDS011;14000;52.056;8.510;2024-02-14T03:06:03;10.93;;;4.17;;
26277;SDS011;14000;52.056;8.510;2024-02-14T03:08:29;11.17;;;3.93;;
26277;SDS011;14000;52.056;8.510;2024-02-14T03:10:55;11.70;;;3.93;;
26277;SDS011;14000;52.056;8.510;2024-02-14T03:13:24;12.90;;;3.70;;
26277;SDS011;14000;52.056;8.510;2024-02-14T03:15:51;10.37;;;3.67;;
26277;SDS011;14000;52.056;8.510;2024-02-14T03:18:17;10.77;;;3.67;;
26277;SDS011;14000;52.056;8.510;2024-02-14T03:20:43;11.27;;;3.40;;
26277;SDS011;14000;52.056;8.510;2024-02-14T03:23:09;10.83;;;3.63;;
26277;SDS011;14000;52.056;8.510;2024-02-14T03:25:34;13.53;;;3.80;;
26277;SDS011;14000;52.056;8.510;2024-02-14T03:28:01;12.83;;;3.47;;
26277;SDS011;14000;52.056;8.510;2024-02-14T03:30:33;11.63;;;4.20;;
26277;SDS011;14000;52.056;8.510;2024-02-14T03:33:04;9.63;;;3.20;;
26277;SDS011;14000;52.056;8.510;2024-02-14T03:35:30;14.43;;;3.63;;
26277;SDS011;14000;52.056;8.510;2024-02-14T03:37:55;11.13;;;3.63;;
26277;SDS011;14000;52.056;8.510;2024-02-14T03:40:21;12.80;;;3.80;;
26277;SDS011;14000;52.056;8.510;2024-02-14T03:42:47;11.67;;;4.10;;
26277;SDS011;14000;52.056;8.510;2024-02-14T03:45:13;10.60;;;4.27;;
26277;SDS011;14000;52.056;8.510;2024-02-14T03:47:39;10.20;;;3.87;;
26277;SDS011;14000;52.056;8.510;2024-02-14T03:50:05;11.50;;;4.07;;
26277;SDS011;14000;52.056;8.510;2024-02-14T03:52:32;13.67;;;4.63;;
26277;SDS011;14000;52.056;8.510;2024-02-14T03:54:58;11.13;;;4.13;;
26277;SDS011;14000;52.056;8.510;2024-02-14T03:57:28;10.63;;;4.20;;
26277;SDS011;14000;52.056;8.510;2024-02-14T03:59:54;10.93;;;4.20;;
26277;SDS011;14000;52.056;8.510;2024-02-14T04:02:21;12.00;;;4.60;;
26277;SDS011;14000;52.056;8.510;2024-02-14T04:04:48;11.10;;;4.23;;
26277;SDS011;14000;52.056;8.510;2024-02-14T04:07:14;12.17;;;3.97;;
26277;SDS011;14000;52.056;8.510;2024-02-14T04:09:40;11.00;;;4.40;;
26277;SDS011;14000;52.056;8.510;2024-02-14T04:12:05;11.10;;;4.13;;
26277;SDS011;14000;52.056;8.510;2024-02-14T04:14:31;11.00;;;4.43;;
26277;SDS011;14000;52.056;8.510;2024-02-14T04:16:56;14.47;;;4.60;;
26277;SDS011;14000;52.056;8.510;2024-02-14T04:19:22;11.57;;;4.53;;
26277;SDS011;14000;52.056;8.510;2024-02-14T04:21:48;12.13;;;4.00;;
26277;SDS011;14000;52.056;8.510;2024-02-14T04:24:13;11.30;;;4.87;;
26277;SDS011;14000;52.056;8.510;2024-02-14T04:26:39;9.83;;;4.37;;
26277;SDS011;14000;52.056;8.510;2024-02-14T04:29:05;11.97;;;5.00;;
26277;SDS011;14000;52.056;8.510;2024-02-14T04:31:30;12.73;;;5.20;;
26277;SDS011;14000;52.056;8.510;2024-02-14T04:33:56;12.20;;;5.77;;
26277;SDS011;14000;52.056;8.510;2024-02-14T04:36:22;15.80;;;5.90;;
26277;SDS011;14000;52.056;8.510;2024-02-14T04:38:49;14.60;;;6.03;;
26277;SDS011;14000;52.056;8.510;2024-02-14T04:41:15;14.13;;;6.10;;
26277;SDS011;14000;52.056;8.510;2024-02-14T04:43:41;14.03;;;6.23;;
26277;SDS011;14000;52.056;8.510;2024-02-14T04:46:07;15.63;;;6.30;;
26277;SDS011;14000;52.056;8.510;2024-02-14T04:48:33;12.60;;;6.13;;
26277;SDS011;14000;52.056;8.510;2024-02-14T04:50:59;13.87;;;6.47;;
26277;SDS011;14000;52.056;8.510;2024-02-14T04:53:25;12.67;;;6.17;;
26277;SDS011;14000;52.056;8.510;2024-02-14T04:55:51;13.97;;;6.77;;
26277;SDS011;14000;52.056;8.510;2024-02-14T04:58:16;15.73;;;6.30;;
26277;SDS011;14000;52.056;8.510;2024-02-14T05:00:42;15.77;;;7.00;;
26277;SDS011;14000;52.056;8.510;2024-02-14T05:03:07;13.73;;;6.60;;
26277;SDS011;14000;52.056;8.510;2024-02-14T05:05:35;13.93;;;6.37;;
26277;SDS011;14000;52.056;8.510;2024-02-14T05:08:00;13.50;;;6.57;;
26277;SDS011;14000;52.056;8.510;2024-02-14T05:10:27;15.97;;;6.57;;
26277;SDS011;14000;52.056;8.510;2024-02-14T05:12:53;13.33;;;6.87;;
26277;SDS011;14000;52.056;8.510;2024-02-14T05:15:19;16.57;;;6.30;;
26277;SDS011;14000;52.056;8.510;2024-02-14T05:17:45;14.70;;;6.73;;
26277;SDS011;14000;52.056;8.510;2024-02-14T05:20:10;14.07;;;6.53;;
26277;SDS011;14000;52.056;8.510;2024-02-14T05:22:36;14.97;;;6.67;;
26277;SDS011;14000;52.056;8.510;2024-02-14T05:25:05;15.03;;;6.60;;
26277;SDS011;14000;52.056;8.510;2024-02-14T05:27:33;14.33;;;6.73;;
26277;SDS011;14000;52.056;8.510;2024-02-14T05:29:59;14.70;;;6.30;;
26277;SDS011;14000;52.056;8.510;2024-02-14T05:32:25;12.57;;;6.40;;
26277;SDS011;14000;52.056;8.510;2024-02-14T05:34:51;15.80;;;7.10;;
26277;SDS011;14000;52.056;8.510;2024-02-14T05:37:16;13.57;;;6.90;;
26277;SDS011;14000;52.056;8.510;2024-02-14T05:39:42;14.97;;;7.10;;
26277;SDS011;14000;52.056;8.510;2024-02-14T05:42:08;15.47;;;7.77;;
26277;SDS011;14000;52.056;8.510;2024-02-14T05:44:33;14.13;;;6.80;;
26277;SDS011;14000;52.056;8.510;2024-02-14T05:46:59;15.07;;;7.53;;
26277;SDS011;14000;52.056;8.510;2024-02-14T05:49:25;14.80;;;6.83;;
26277;SDS011;14000;52.056;8.510;2024-02-14T05:51:51;13.87;;;7.37;;
26277;SDS011;14000;52.056;8.510;2024-02-14T05:54:18;13.50;;;7.00;;
26277;SDS011;14000;52.056;8.510;2024-02-14T05:56:44;13.27;;;6.93;;
26277;SDS011;14000;52.056;8.510;2024-02-14T05:59:10;13.27;;;6.80;;
26277;SDS011;14000;52.056;8.510;2024-02-14T06:01:36;13.73;;;6.80;;
26277;SDS011;14000;52.056;8.510;2024-02-14T06:04:02;13.97;;;7.50;;
26277;SDS011;14000;52.056;8.510;2024-02-14T06:06:27;14.13;;;7.07;;
26277;SDS011;14000;52.056;8.510;2024-02-14T06:08:53;17.10;;;8.63;;
26277;SDS011;14000;52.056;8.510;2024-02-14T06:11:19;15.30;;;8.67;;
26277;SDS011;14000;52.056;8.510;2024-02-14T06:13:46;17.63;;;8.73;;
26277;SDS011;14000;52.056;8.510;2024-02-14T06:16:13;17.60;;;8.70;;
26277;SDS011;14000;52.056;8.510;2024-02-14T06:18:38;15.10;;;8.67;;
26277;SDS011;14000;52.056;8.510;2024-02-14T06:21:05;19.00;;;9.83;;
26277;SDS011;14000;52.056;8.510;2024-02-14T06:23:31;15.63;;;9.03;;
26277;SDS011;14000;52.056;8.510;2024-02-14T06:25:57;16.30;;;9.30;;
26277;SDS011;14000;52.056;8.510;2024-02-14T06:28:23;17.20;;;9.50;;
26277;SDS011;14000;52.056;8.510;2024-02-14T06:30:49;17.67;;;8.90;;
26277;SDS011;14000;52.056;8.510;2024-02-14T06:33:15;20.07;;;10.90;;
26277;SDS011;14000;52.056;8.510;2024-02-14T06:35:40;16.40;;;9.43;;
26277;SDS011;14000;52.056;8.510;2024-02-14T06:38:06;18.40;;;10.13;;
26277;SDS011;14000;52.056;8.510;2024-02-14T06:40:32;14.10;;;8.07;;
26277;SDS011;14000;52.056;8.510;2024-02-14T06:42:57;17.43;;;9.30;;
26277;SDS011;14000;52.056;8.510;2024-02-14T06:45:25;15.83;;;9.10;;
26277;SDS011;14000;52.056;8.510;2024-02-14T06:47:51;18.50;;;10.43;;
26277;SDS011;14000;52.056;8.510;2024-02-14T06:50:16;18.33;;;11.47;;
26277;SDS011;14000;52.056;8.510;2024-02-14T06:52:42;21.60;;;12.73;;
26277;SDS011;14000;52.056;8.510;2024-02-14T06:55:08;19.93;;;12.00;;
26277;SDS011;14000;52.056;8.510;2024-02-14T06:57:33;22.50;;;12.87;;
26277;SDS011;14000;52.056;8.510;2024-02-14T06:59:59;22.73;;;12.80;;
26277;SDS011;14000;52.056;8.510;2024-02-14T07:02:24;22.83;;;13.37;;
26277;SDS011;14000;52.056;8.510;2024-02-14T07:04:53;21.53;;;13.00;;
26277;SDS011;14000;52.056;8.510;2024-02-14T07:07:19;22.37;;;14.00;;
26277;SDS011;14000;52.056;8.510;2024-02-14T07:09:45;24.53;;;14.93;;
26277;SDS011;14000;52.056;8.510;2024-02-14T07:12:10;25.60;;;16.77;;
26277;SDS011;14000;52.056;8.510;2024-02-14T07:14:36;27.43;;;16.87;;
26277;SDS011;14000;52.056;8.510;2024-02-14T07:17:02;29.17;;;17.73;;
26277;SDS011;14000;52.056;8.510;2024-02-14T07:19:28;24.10;;;16.43;;
26277;SDS011;14000;52.056;8.510;2024-02-14T07:21:53;26.77;;;17.03;;
26277;SDS011;14000;52.056;8.510;2024-02-14T07:24:19;30.50;;;19.53;;
26277;SDS011;14000;52.056;8.510;2024-02-14T07:26:45;29.87;;;18.53;;
26277;SDS011;14000;52.056;8.510;2024-02-14T07:29:11;32.23;;;18.83;;
26277;SDS011;14000;52.056;8.510;2024-02-14T07:31:36;33.67;;;19.67;;
26277;SDS011;14000;52.056;8.510;2024-02-14T07:34:02;30.97;;;19.90;;
26277;SDS011;14000;52.056;8.510;2024-02-14T07:36:28;38.33;;;20.73;;
26277;SDS011;14000;52.056;8.510;2024-02-14T07:38:54;31.20;;;20.50;;
26277;SDS011;14000;52.056;8.510;2024-02-14T07:41:20;32.00;;;20.37;;
26277;SDS011;14000;52.056;8.510;2024-02-14T07:43:45;32.37;;;19.23;;
26277;SDS011;14000;52.056;8.510;2024-02-14T07:46:15;31.63;;;20.37;;
26277;SDS011;14000;52.056;8.510;2024-02-14T07:48:44;35.70;;;20.63;;
26277;SDS011;14000;52.056;8.510;2024-02-14T07:51:10;34.60;;;21.57;;
26277;SDS011;14000;52.056;8.510;2024-02-14T07:53:36;31.33;;;20.97;;
26277;SDS011;14000;52.056;8.510;2024-02-14T07:56:02;33.27;;;20.23;;
26277;SDS011;14000;52.056;8.510;2024-02-14T07:58:27;32.10;;;21.27;;
26277;SDS011;14000;52.056;8.510;2024-02-14T08:00:53;32.73;;;20.63;;
26277;SDS011;14000;52.056;8.510;2024-02-14T08:03:18;38.17;;;22.97;;
26277;SDS011;14000;52.056;8.510;2024-02-14T08:05:44;39.53;;;22.30;;
26277;SDS011;14000;52.056;8.510;2024-02-14T08:08:10;40.93;;;23.37;;
26277;SDS011;14000;52.056;8.510;2024-02-14T08:10:35;38.17;;;23.50;;
26277;SDS011;14000;52.056;8.510;2024-02-14T08:13:01;35.30;;;22.27;;
26277;SDS011;14000;52.056;8.510;2024-02-14T08:15:29;34.47;;;21.53;;
26277;SDS011;14000;52.056;8.510;2024-02-14T08:17:54;30.37;;;19.93;;
26277;SDS011;14000;52.056;8.510;2024-02-14T08:20:21;32.47;;;20.87;;
26277;SDS011;14000;52.056;8.510;2024-02-14T08:22:47;34.00;;;21.43;;
26277;SDS011;14000;52.056;8.510;2024-02-14T08:25:13;33.47;;;20.87;;
26277;SDS011;14000;52.056;8.510;2024-02-14T08:27:39;33.37;;;21.00;;
26277;SDS011;14000;52.056;8.510;2024-02-14T08:30:05;31.17;;;21.00;;
26277;SDS011;14000;52.056;8.510;2024-02-14T08:32:31;30.00;;;20.60;;
26277;SDS011;14000;52.056;8.510;2024-02-14T08:34:58;32.07;;;21.00;;
26277;SDS011;14000;52.056;8.510;2024-02-14T08:37:23;30.63;;;20.00;;
26277;SDS011;14000;52.056;8.510;2024-02-14T08:39:50;29.83;;;20.43;;
26277;SDS011;14000;52.056;8.510;2024-02-14T08:42:15;33.60;;;20.57;;
26277;SDS011;14000;52.056;8.510;2024-02-14T08:44:41;33.53;;;21.67;;
26277;SDS011;14000;52.056;8.510;2024-02-14T08:47:07;31.30;;;20.03;;
26277;SDS011;14000;52.056;8.510;2024-02-14T08:49:32;32.60;;;19.80;;
26277;SDS011;14000;52.056;8.510;2024-02-14T08:51:58;31.77;;;19.63;;
26277;SDS011;14000;52.056;8.510;2024-02-14T08:54:24;31.57;;;19.83;;
26277;SDS011;14000;52.056;8.510;2024-02-14T08:56:49;33.07;;;20.17;;
26277;SDS011;14000;52.056;8.510;2024-02-14T08:59:18;29.50;;;18.13;;
26277;SDS011;14000;52.056;8.510;2024-02-14T09:01:44;27.87;;;17.30;;
26277;SDS011;14000;52.056;8.510;2024-02-14T09:04:10;30.00;;;17.70;;
26277;SDS011;14000;52.056;8.510;2024-02-14T09:06:36;25.23;;;16.57;;
26277;SDS011;14000;52.056;8.510;2024-02-14T09:09:04;28.30;;;17.20;;
26277;SDS011;14000;52.056;8.510;2024-02-14T09:11:29;25.30;;;16.23;;
26277;SDS011;14000;52.056;8.510;2024-02-14T09:13:56;26.10;;;16.63;;
26277;SDS011;14000;52.056;8.510;2024-02-14T09:16:27;24.00;;;15.83;;
26277;SDS011;14000;52.056;8.510;2024-02-14T09:18:53;25.50;;;16.13;;
26277;SDS011;14000;52.056;8.510;2024-02-14T09:21:18;24.20;;;15.70;;
26277;SDS011;14000;52.056;8.510;2024-02-14T09:23:46;27.50;;;16.77;;
26277;SDS011;14000;52.056;8.510;2024-02-14T09:26:12;25.83;;;15.43;;
26277;SDS011;14000;52.056;8.510;2024-02-14T09:28:40;26.27;;;16.53;;
26277;SDS011;14000;52.056;8.510;2024-02-14T09:31:05;25.43;;;16.00;;
26277;SDS011;14000;52.056;8.510;2024-02-14T09:33:31;23.60;;;15.23;;
26277;SDS011;14000;52.056;8.510;2024-02-14T09:35:57;24.43;;;15.73;;
26277;SDS011;14000;52.056;8.510;2024-02-14T09:38:22;22.70;;;15.90;;
26277;SDS011;14000;52.056;8.510;2024-02-14T09:40:49;27.97;;;16.50;;
26277;SDS011;14000;52.056;8.510;2024-02-14T09:43:28;28.53;;;17.40;;
26277;SDS011;14000;52.056;8.510;2024-02-14T09:46:08;31.60;;;18.77;;
26277;SDS011;14000;52.056;8.510;2024-02-14T09:48:34;26.87;;;18.07;;
26277;SDS011;14000;52.056;8.510;2024-02-14T09:51:02;25.80;;;16.60;;
26277;SDS011;14000;52.056;8.510;2024-02-14T09:53:29;27.33;;;17.20;;
26277;SDS011;14000;52.056;8.510;2024-02-14T09:55:55;30.70;;;17.97;;
26277;SDS011;14000;52.056;8.510;2024-02-14T09:58:22;27.03;;;18.27;;
26277;SDS011;14000;52.056;8.510;2024-02-14T10:00:48;30.40;;;18.90;;
26277;SDS011;14000;52.056;8.510;2024-02-14T10:10:06;36.00;;;20.80;;
26277;SDS011;14000;52.056;8.510;2024-02-14T10:12:32;32.67;;;19.60;;
26277;SDS011;14000;52.056;8.510;2024-02-14T10:14:57;35.13;;;20.90;;
26277;SDS011;14000;52.056;8.510;2024-02-14T10:17:23;33.10;;;20.67;;
26277;SDS011;14000;52.056;8.510;2024-02-14T10:19:55;31.17;;;20.97;;
26277;SDS011;14000;52.056;8.510;2024-02-14T10:22:27;37.50;;;22.70;;
26277;SDS011;14000;52.056;8.510;2024-02-14T10:24:59;32.70;;;20.73;;
26277;SDS011;14000;52.056;8.510;2024-02-14T10:27:25;38.43;;;23.33;;
26277;SDS011;14000;52.056;8.510;2024-02-14T10:29:50;32.67;;;20.33;;
26277;SDS011;14000;52.056;8.510;2024-02-14T10:32:16;31.37;;;21.00;;
26277;SDS011;14000;52.056;8.510;2024-02-14T10:34:43;32.40;;;20.93;;
26277;SDS011;14000;52.056;8.510;2024-02-14T10:37:10;34.73;;;22.07;;
26277;SDS011;14000;52.056;8.510;2024-02-14T10:39:40;34.63;;;21.23;;
26277;SDS011;14000;52.056;8.510;2024-02-14T10:42:06;33.67;;;20.63;;
26277;SDS011;14000;52.056;8.510;2024-02-14T10:44:32;36.73;;;22.63;;
26277;SDS011;14000;52.056;8.510;2024-02-14T10:46:59;37.30;;;22.43;;
26277;SDS011;14000;52.056;8.510;2024-02-14T10:49:27;31.10;;;21.33;;
26277;SDS011;14000;52.056;8.510;2024-02-14T10:51:54;34.00;;;21.30;;
26277;SDS011;14000;52.056;8.510;2024-02-14T10:54:24;31.77;;;21.10;;
26277;SDS011;14000;52.056;8.510;2024-02-14T10:56:50;33.93;;;21.60;;
26277;SDS011;14000;52.056;8.510;2024-02-14T10:59:19;30.43;;;20.47;;
26277;SDS011;14000;52.056;8.510;2024-02-14T11:01:46;31.43;;;22.23;;
26277;SDS011;14000;52.056;8.510;2024-02-14T11:04:12;30.60;;;20.23;;
26277;SDS011;14000;52.056;8.510;2024-02-14T11:06:48;30.93;;;20.97;;
26277;SDS011;14000;52.056;8.510;2024-02-14T11:09:18;31.73;;;21.13;;
26277;SDS011;14000;52.056;8.510;2024-02-14T11:11:44;33.23;;;21.47;;
26277;SDS011;14000;52.056;8.510;2024-02-14T11:14:14;31.33;;;21.20;;
26277;SDS011;14000;52.056;8.510;2024-02-14T11:16:41;32.67;;;20.73;;
26277;SDS011;14000;52.056;8.510;2024-02-14T11:19:10;31.27;;;19.47;;
26277;SDS011;14000;52.056;8.510;2024-02-14T11:21:44;29.17;;;20.47;;
26277;SDS011;14000;52.056;8.510;2024-02-14T11:24:11;25.67;;;18.23;;
26277;SDS011;14000;52.056;8.510;2024-02-14T11:29:15;27.10;;;18.07;;
26277;SDS011;14000;52.056;8.510;2024-02-14T11:31:41;31.13;;;20.50;;
26277;SDS011;14000;52.056;8.510;2024-02-14T11:34:08;26.07;;;19.00;;
26277;SDS011;14000;52.056;8.510;2024-02-14T11:36:36;27.43;;;18.43;;
26277;SDS011;14000;52.056;8.510;2024-02-14T11:39:02;30.10;;;20.33;;
26277;SDS011;14000;52.056;8.510;2024-02-14T11:41:29;27.67;;;19.67;;
26277;SDS011;14000;52.056;8.510;2024-02-14T11:43:55;26.90;;;18.87;;
26277;SDS011;14000;52.056;8.510;2024-02-14T11:46:21;26.10;;;18.23;;
26277;SDS011;14000;52.056;8.510;2024-02-14T11:48:47;27.37;;;18.63;;
26277;SDS011;14000;52.056;8.510;2024-02-14T11:51:12;25.10;;;17.17;;
26277;SDS011;14000;52.056;8.510;2024-02-14T11:53:39;21.83;;;15.90;;
26277;SDS011;14000;52.056;8.510;2024-02-14T11:56:06;24.83;;;16.93;;
26277;SDS011;14000;52.056;8.510;2024-02-14T11:58:31;22.10;;;15.07;;
26277;SDS011;14000;52.056;8.510;2024-02-14T12:00:57;22.60;;;14.20;;
26277;SDS011;14000;52.056;8.510;2024-02-14T12:03:23;20.83;;;13.27;;
26277;SDS011;14000;52.056;8.510;2024-02-14T12:05:49;22.00;;;13.50;;
26277;SDS011;14000;52.056;8.510;2024-02-14T12:08:16;18.33;;;13.33;;
26277;SDS011;14000;52.056;8.510;2024-02-14T12:10:43;21.07;;;12.37;;
26277;SDS011;14000;52.056;8.510;2024-02-14T12:13:13;18.40;;;11.83;;
26277;SDS011;14000;52.056;8.510;2024-02-14T12:15:41;20.63;;;12.83;;
26277;SDS011;14000;52.056;8.510;2024-02-14T12:18:09;18.03;;;11.93;;
26277;SDS011;14000;52.056;8.510;2024-02-14T12:20:35;19.97;;;11.07;;
26277;SDS011;14000;52.056;8.510;2024-02-14T12:23:02;18.53;;;11.67;;
26277;SDS011;14000;52.056;8.510;2024-02-14T12:25:28;16.93;;;11.07;;
26277;SDS011;14000;52.056;8.510;2024-02-14T12:27:56;16.07;;;10.60;;
26277;SDS011;14000;52.056;8.510;2024-02-14T12:30:22;16.27;;;9.90;;
26277;SDS011;14000;52.056;8.510;2024-02-14T12:32:57;17.67;;;11.13;;
26277;SDS011;14000;52.056;8.510;2024-02-14T12:35:24;16.17;;;10.60;;
26277;SDS011;14000;52.056;8.510;2024-02-14T12:37:50;16.03;;;11.27;;
26277;SDS011;14000;52.056;8.510;2024-02-14T12:40:15;16.93;;;11.00;;
26277;SDS011;14000;52.056;8.510;2024-02-14T12:42:41;17.40;;;10.87;;
26277;SDS011;14000;52.056;8.510;2024-02-14T12:45:07;18.03;;;11.17;;
26277;SDS011;14000;52.056;8.510;2024-02-14T12:47:34;17.53;;;11.13;;
26277;SDS011;14000;52.056;8.510;2024-02-14T12:50:00;17.97;;;12.00;;
26277;SDS011;14000;52.056;8.510;2024-02-14T12:52:25;20.43;;;13.97;;
26277;SDS011;14000;52.056;8.510;2024-02-14T12:54:51;19.87;;;13.07;;
26277;SDS011;14000;52.056;8.510;2024-02-14T12:57:17;17.53;;;12.37;;
26277;SDS011;14000;52.056;8.510;2024-02-14T12:59:44;21.23;;;14.60;;
26277;SDS011;14000;52.056;8.510;2024-02-14T13:02:10;18.63;;;11.97;;
26277;SDS011;14000;52.056;8.510;2024-02-14T13:04:36;17.13;;;11.47;;
26277;SDS011;14000;52.056;8.510;2024-02-14T13:07:01;20.77;;;12.33;;
26277;SDS011;14000;52.056;8.510;2024-02-14T13:09:27;18.17;;;12.23;;
26277;SDS011;14000;52.056;8.510;2024-02-14T13:11:53;19.80;;;13.40;;
26277;SDS011;14000;52.056;8.510;2024-02-14T13:14:18;18.90;;;13.63;;
26277;SDS011;14000;52.056;8.510;2024-02-14T13:16:44;20.10;;;13.77;;
26277;SDS011;14000;52.056;8.510;2024-02-14T13:19:10;21.23;;;14.73;;
26277;SDS011;14000;52.056;8.510;2024-02-14T13:21:36;23.30;;;14.20;;
26277;SDS011;14000;52.056;8.510;2024-02-14T13:24:01;24.17;;;15.97;;
26277;SDS011;14000;52.056;8.510;2024-02-14T13:26:28;22.73;;;16.53;;
26277;SDS011;14000;52.056;8.510;2024-02-14T13:28:54;25.30;;;16.70;;
26277;SDS011;14000;52.056;8.510;2024-02-14T13:31:20;27.70;;;17.97;;
26277;SDS011;14000;52.056;8.510;2024-02-14T13:33:46;23.60;;;15.33;;
26277;SDS011;14000;52.056;8.510;2024-02-14T13:36:12;23.57;;;15.37;;
26277;SDS011;14000;52.056;8.510;2024-02-14T13:38:41;23.97;;;15.10;;
26277;SDS011;14000;52.056;8.510;2024-02-14T13:41:09;23.83;;;14.87;;
26277;SDS011;14000;52.056;8.510;2024-02-14T13:43:36;25.60;;;16.43;;
26277;SDS011;14000;52.056;8.510;2024-02-14T13:46:02;25.07;;;15.80;;
26277;SDS011;14000;52.056;8.510;2024-02-14T13:48:27;25.20;;;16.13;;
26277;SDS011;14000;52.056;8.510;2024-02-14T13:50:53;23.60;;;14.80;;
26277;SDS011;14000;52.056;8.510;2024-02-14T13:53:19;21.27;;;14.50;;
26277;SDS011;14000;52.056;8.510;2024-02-14T13:55:47;20.50;;;12.73;;
26277;SDS011;14000;52.056;8.510;2024-02-14T13:58:13;19.03;;;11.80;;
26277;SDS011;14000;52.056;8.510;2024-02-14T14:00:41;21.60;;;12.90;;
26277;SDS011;14000;52.056;8.510;2024-02-14T14:03:07;20.07;;;12.00;;
26277;SDS011;14000;52.056;8.510;2024-02-14T14:05:33;21.53;;;11.63;;
26277;SDS011;14000;52.056;8.510;2024-02-14T14:07:58;20.23;;;11.80;;
26277;SDS011;14000;52.056;8.510;2024-02-14T14:10:25;18.43;;;11.20;;
26277;SDS011;14000;52.056;8.510;2024-02-14T14:12:52;20.30;;;11.40;;
26277;SDS011;14000;52.056;8.510;2024-02-14T14:15:18;19.87;;;11.17;;
26277;SDS011;14000;52.056;8.510;2024-02-14T14:17:44;19.57;;;10.67;;
26277;SDS011;14000;52.056;8.510;2024-02-14T14:20:09;18.23;;;11.00;;
26277;SDS011;14000;52.056;8.510;2024-02-14T14:22:35;18.57;;;10.43;;
26277;SDS011;14000;52.056;8.510;2024-02-14T14:25:03;16.83;;;10.27;;
26277;SDS011;14000;52.056;8.510;2024-02-14T14:27:33;21.03;;;9.97;;
26277;SDS011;14000;52.056;8.510;2024-02-14T14:29:58;17.70;;;9.50;;
26277;SDS011;14000;52.056;8.510;2024-02-14T14:32:24;18.73;;;10.50;;